createdAt,value
2019-01-29T00:00:44.704Z,92717.20
2019-01-29T00:03:13.346Z,92720.38
2019-01-29T00:05:44.692Z,92724.58
2019-01-29T00:08:13.304Z,92724.39
2019-01-29T00:10:43.547Z,92730.34
2019-01-29T00:13:12.177Z,92736.28
2019-01-29T00:15:40.776Z,92736.66
2019-01-29T00:18:12.233Z,92738.28
2019-01-29T00:20:41.565Z,92738.77
2019-01-29T00:23:10.262Z,92741.52
2019-01-29T00:25:38.939Z,92752.07
2019-01-29T00:28:07.549Z,92753.20
2019-01-29T00:30:36.269Z,92744.19
2019-01-29T00:33:05.012Z,92741.50
2019-01-29T00:35:35.389Z,92748.67
2019-01-29T00:38:05.372Z,92754.63
2019-01-29T00:40:33.972Z,92758.16
2019-01-29T00:43:04.232Z,92753.28
2019-01-29T00:45:32.944Z,92761.13
2019-01-29T00:48:01.627Z,92763.86
2019-01-29T00:50:30.319Z,92760.83
2019-01-29T00:52:59.003Z,92765.76
2019-01-29T00:55:27.633Z,92765.48
2019-01-29T00:57:56.325Z,92767.64
2019-01-29T01:00:25.897Z,92772.37
2019-01-29T01:02:57.332Z,92770.12
2019-01-29T01:05:25.972Z,92782.63
2019-01-29T01:07:59.167Z,92783.41
2019-01-29T01:10:29.388Z,92786.15
2019-01-29T01:12:58.077Z,92793.73
2019-01-29T01:15:26.754Z,92799.88
2019-01-29T01:17:55.453Z,92800.30
2019-01-29T01:20:24.134Z,92795.80
2019-01-29T01:22:52.820Z,92791.57
2019-01-29T01:25:21.491Z,92796.47
2019-01-29T01:27:50.295Z,92795.27
2019-01-29T01:30:19.699Z,92799.02
2019-01-29T01:32:48.327Z,92798.72
2019-01-29T01:35:19.531Z,92800.23
2019-01-29T01:37:48.216Z,92799.14
2019-01-29T01:40:25.645Z,92798.55
2019-01-29T01:42:54.291Z,92802.80
2019-01-29T01:45:23.098Z,92797.38
2019-01-29T01:47:51.982Z,92790.11
2019-01-29T01:50:20.655Z,92795.67
2019-01-29T01:52:49.343Z,92802.44
2019-01-29T01:55:18.655Z,92806.06
2019-01-29T01:57:47.328Z,92802.81
2019-01-29T02:00:20.904Z,92806.85
2019-01-29T02:02:49.521Z,92801.69
2019-01-29T02:05:18.482Z,92799.83
2019-01-29T02:07:49.207Z,92806.07
2019-01-29T02:10:20.391Z,92803.16
2019-01-29T02:12:49.076Z,92803.41
2019-01-29T02:15:17.770Z,92805.82
2019-01-29T02:17:46.449Z,92814.76
2019-01-29T02:20:16.834Z,92817.70
2019-01-29T02:22:49.070Z,92812.64
2019-01-29T02:25:17.831Z,92813.71
2019-01-29T02:27:48.257Z,92819.55
2019-01-29T02:30:19.277Z,92825.45
2019-01-29T02:32:47.991Z,92821.39
2019-01-29T02:35:16.903Z,92828.39
2019-01-29T02:37:45.667Z,92825.14
2019-01-29T02:40:22.353Z,92817.55
2019-01-29T02:42:51.032Z,92825.14
2019-01-29T02:45:20.340Z,92830.57
2019-01-29T02:47:49.115Z,92834.22
2019-01-29T02:50:18.623Z,92831.73
2019-01-29T02:52:47.426Z,92833.24
2019-01-29T02:55:16.219Z,92838.53
2019-01-29T02:57:44.891Z,92841.27
2019-01-29T03:00:21.878Z,92843.56
2019-01-29T03:02:50.657Z,92840.66
2019-01-29T03:05:19.659Z,92849.89
2019-01-29T03:07:48.545Z,92849.29
2019-01-29T03:10:20.315Z,92844.61
2019-01-29T03:12:49.091Z,92850.13
2019-01-29T03:15:20.532Z,92853.89
2019-01-29T03:17:49.337Z,92857.36
2019-01-29T03:20:18.124Z,92858.94
2019-01-29T03:22:47.041Z,92857.19
2019-01-29T03:25:15.696Z,92863.34
2019-01-29T03:27:44.383Z,92870.02
2019-01-29T03:30:15.762Z,92874.39
2019-01-29T03:32:44.417Z,92884.53
2019-01-29T03:35:13.422Z,92886.97
2019-01-29T03:37:42.036Z,92889.59
2019-01-29T03:40:16.322Z,92895.48
2019-01-29T03:42:45.001Z,92900.16
2019-01-29T03:45:16.001Z,92907.58
2019-01-29T03:47:46.057Z,92909.76
2019-01-29T03:50:16.725Z,92905.26
2019-01-29T03:52:45.479Z,92905.33
2019-01-29T03:55:14.182Z,92921.41
2019-01-29T03:57:42.858Z,92925.68
2019-01-29T04:00:14.727Z,92910.13
2019-01-29T04:02:43.507Z,92925.72
2019-01-29T04:05:12.189Z,92921.78
2019-01-29T04:07:40.871Z,92919.05
2019-01-29T04:10:16.026Z,92930.41
2019-01-29T04:12:45.765Z,92929.02
2019-01-29T04:15:21.787Z,92928.57
2019-01-29T04:17:53.474Z,92932.92
2019-01-29T04:20:22.191Z,92938.91
2019-01-29T04:22:50.915Z,92953.55
2019-01-29T04:25:19.627Z,92946.86
2019-01-29T04:27:48.284Z,92961.40
2019-01-29T04:30:18.929Z,92961.95
2019-01-29T04:32:47.604Z,92965.95
2019-01-29T04:35:16.596Z,92975.61
2019-01-29T04:37:45.284Z,92974.34
2019-01-29T04:40:16.451Z,92970.69
2019-01-29T04:42:45.123Z,92978.66
2019-01-29T04:45:15.338Z,92989.69
2019-01-29T04:47:44.023Z,92989.91
2019-01-29T04:50:15.179Z,92984.80
2019-01-29T04:52:43.862Z,92991.00
2019-01-29T04:55:14.935Z,92989.94
2019-01-29T04:57:43.789Z,92998.69
2019-01-29T05:00:18.218Z,93004.83
2019-01-29T05:02:46.834Z,93012.18
2019-01-29T05:05:15.987Z,93003.88
2019-01-29T05:07:44.678Z,93014.09
2019-01-29T05:10:15.972Z,93015.20
2019-01-29T05:12:44.617Z,93018.36
2019-01-29T05:15:16.058Z,93013.93
2019-01-29T05:17:44.858Z,93020.25
2019-01-29T05:20:18.760Z,93025.97
2019-01-29T05:22:47.650Z,93024.88
2019-01-29T05:25:17.132Z,93036.84
2019-01-29T05:27:45.838Z,93035.99
2019-01-29T05:30:20.847Z,93037.29
2019-01-29T05:32:49.894Z,93039.15
2019-01-29T05:35:18.762Z,93047.66
2019-01-29T05:37:47.417Z,93048.76
2019-01-29T05:40:21.062Z,93044.54
2019-01-29T05:42:49.944Z,93044.41
2019-01-29T05:45:20.263Z,93048.37
2019-01-29T05:47:49.154Z,93051.53
2019-01-29T05:50:18.075Z,93060.95
2019-01-29T05:52:46.835Z,93065.30
2019-01-29T05:55:16.549Z,93061.55
2019-01-29T05:57:45.231Z,93070.08
2019-01-29T06:00:17.201Z,93071.11
2019-01-29T06:02:45.917Z,93078.38
2019-01-29T06:05:15.590Z,93075.28
2019-01-29T06:07:44.285Z,93079.77
2019-01-29T06:10:17.842Z,93086.92
2019-01-29T06:12:47.182Z,93092.81
2019-01-29T06:15:23.944Z,93099.47
2019-01-29T06:17:52.642Z,93108.50
2019-01-29T06:20:32.003Z,93106.98
2019-01-29T06:23:00.668Z,93114.86
2019-01-29T06:25:29.479Z,93126.05
2019-01-29T06:27:58.359Z,93131.84
2019-01-29T06:30:27.952Z,93127.23
2019-01-29T06:32:56.649Z,93133.87
2019-01-29T06:35:25.636Z,93136.46
2019-01-29T06:37:54.421Z,93143.77
2019-01-29T06:40:29.351Z,93150.31
2019-01-29T06:42:58.149Z,93152.86
2019-01-29T06:45:27.354Z,93149.37
2019-01-29T06:47:56.030Z,93166.09
2019-01-29T06:50:26.976Z,93168.50
2019-01-29T06:52:56.485Z,93162.05
2019-01-29T06:55:26.233Z,93170.59
2019-01-29T06:57:56.138Z,93180.36
2019-01-29T07:00:32.775Z,93169.47
2019-01-29T07:03:02.115Z,93185.73
2019-01-29T07:05:30.864Z,93179.52
2019-01-29T07:07:59.560Z,93189.55
2019-01-29T07:10:28.540Z,93185.91
2019-01-29T07:12:57.437Z,93191.01
2019-01-29T07:15:47.839Z,93187.11
2019-01-29T07:18:21.100Z,93189.95
2019-01-29T07:20:49.729Z,93197.28
2019-01-29T07:23:18.405Z,93196.70
2019-01-29T07:25:47.014Z,93203.72
2019-01-29T07:28:15.772Z,93201.67
2019-01-29T07:30:44.558Z,93201.32
2019-01-29T07:33:13.343Z,93204.23
2019-01-29T07:35:42.042Z,93203.78
2019-01-29T07:38:10.823Z,93202.75
2019-01-29T07:40:39.519Z,93206.45
2019-01-29T07:43:08.297Z,93200.78
2019-01-29T07:45:36.989Z,93210.16
2019-01-29T07:48:05.871Z,93206.81
2019-01-29T07:50:34.562Z,93212.64
2019-01-29T07:53:03.278Z,93211.20
2019-01-29T07:55:32.032Z,93205.61
2019-01-29T07:58:00.732Z,93209.63
2019-01-29T08:00:29.413Z,93205.59
2019-01-29T08:02:58.095Z,93209.34
2019-01-29T08:05:26.781Z,93212.27
2019-01-29T08:07:55.479Z,93219.44
2019-01-29T08:10:24.727Z,93207.26
2019-01-29T08:12:53.658Z,93213.11
2019-01-29T08:15:23.254Z,93206.93
2019-01-29T08:17:52.463Z,93216.67
2019-01-29T08:20:21.158Z,93216.09
2019-01-29T08:22:49.942Z,93221.64
2019-01-29T08:25:18.641Z,93224.42
2019-01-29T08:27:47.519Z,93227.95
2019-01-29T08:30:20.605Z,93226.64
2019-01-29T08:32:49.427Z,93224.96
2019-01-29T08:35:18.691Z,93232.48
2019-01-29T08:37:47.378Z,93223.98
2019-01-29T08:40:17.146Z,93221.68
2019-01-29T08:42:46.088Z,93227.73
2019-01-29T08:45:17.055Z,93229.66
2019-01-29T08:47:45.702Z,93230.53
2019-01-29T08:50:27.307Z,93230.89
2019-01-29T08:52:55.993Z,93231.39
2019-01-29T08:55:24.899Z,93231.43
2019-01-29T08:57:53.565Z,93231.95
2019-01-29T09:00:23.151Z,93231.72
2019-01-29T09:02:51.858Z,93230.52
2019-01-29T09:05:20.552Z,93234.87
2019-01-29T09:07:49.234Z,93235.43
2019-01-29T09:10:22.016Z,93240.33
2019-01-29T09:12:50.907Z,93242.63
2019-01-29T09:15:21.081Z,93236.53
2019-01-29T09:17:50.020Z,93237.91
2019-01-29T09:20:20.756Z,93233.48
2019-01-29T09:22:49.541Z,93233.69
2019-01-29T09:25:21.128Z,93234.91
2019-01-29T09:27:48.967Z,93238.63
2019-01-29T09:30:19.190Z,93237.55
2019-01-29T09:32:47.977Z,93234.72
2019-01-29T09:35:16.761Z,93244.17
2019-01-29T09:37:45.462Z,93246.53
2019-01-29T09:40:24.281Z,93245.04
2019-01-29T09:42:53.696Z,93234.56
2019-01-29T09:45:22.677Z,93240.72
2019-01-29T09:47:51.357Z,93226.08
2019-01-29T09:50:22.300Z,93231.76
2019-01-29T09:52:52.730Z,93230.65
2019-01-29T09:55:29.082Z,93229.69
2019-01-29T09:57:53.353Z,93227.38
2019-01-29T10:00:33.942Z,93228.78
2019-01-29T10:03:02.627Z,93229.06
2019-01-29T10:05:31.413Z,93226.67
2019-01-29T10:08:00.201Z,93226.23
2019-01-29T10:10:30.748Z,93218.84
2019-01-29T10:13:00.956Z,93223.48
2019-01-29T10:15:31.891Z,93215.78
2019-01-29T10:18:00.586Z,93220.98
2019-01-29T10:20:29.791Z,93217.28
2019-01-29T10:22:58.468Z,93209.85
2019-01-29T10:25:27.354Z,93205.84
2019-01-29T10:27:56.038Z,93207.12
2019-01-29T10:30:26.582Z,93202.00
2019-01-29T10:32:55.785Z,93195.20
2019-01-29T10:35:27.121Z,93187.17
2019-01-29T10:37:55.835Z,93174.88
2019-01-29T10:40:27.178Z,93191.97
2019-01-29T10:42:58.945Z,93179.68
2019-01-29T10:45:29.653Z,93185.21
2019-01-29T10:47:58.400Z,93186.41
2019-01-29T10:50:29.706Z,93181.91
2019-01-29T10:52:58.576Z,93180.75
2019-01-29T10:55:27.287Z,93175.94
2019-01-29T10:57:56.152Z,93171.70
2019-01-29T11:00:33.747Z,93170.82
2019-01-29T11:03:02.721Z,93175.38
2019-01-29T11:05:32.031Z,93165.67
2019-01-29T11:08:01.186Z,93158.09
2019-01-29T11:10:29.926Z,93151.44
2019-01-29T11:12:58.614Z,93144.54
2019-01-29T11:15:33.240Z,93146.69
2019-01-29T11:18:02.011Z,93142.16
2019-01-29T11:20:30.819Z,93145.61
2019-01-29T11:22:59.604Z,93139.38
2019-01-29T11:25:30.459Z,93143.33
2019-01-29T11:27:59.537Z,93142.38
2019-01-29T11:30:30.317Z,93137.96
2019-01-29T11:32:58.964Z,93134.20
2019-01-29T11:35:27.640Z,93139.25
2019-01-29T11:37:56.371Z,93137.22
2019-01-29T11:40:32.796Z,93132.66
2019-01-29T11:43:01.695Z,93133.61
2019-01-29T11:45:33.149Z,93135.80
2019-01-29T11:48:02.036Z,93129.78
2019-01-29T11:50:30.717Z,93127.03
2019-01-29T11:52:59.423Z,93128.31
2019-01-29T11:55:28.090Z,93128.48
2019-01-29T11:57:56.712Z,93128.45
2019-01-29T12:00:38.169Z,93127.52
2019-01-29T12:03:06.849Z,93127.30
2019-01-29T12:05:35.644Z,93126.04
2019-01-29T12:08:05.665Z,93124.95
2019-01-29T12:10:35.984Z,93126.09
2019-01-29T12:13:05.798Z,93123.16
2019-01-29T12:15:34.488Z,93118.80
2019-01-29T12:18:04.806Z,93120.09
2019-01-29T12:20:33.559Z,93121.02
2019-01-29T12:23:02.222Z,93119.97
2019-01-29T12:25:30.966Z,93115.23
2019-01-29T12:27:59.654Z,93112.66
2019-01-29T12:30:29.496Z,93111.03
2019-01-29T12:32:59.963Z,93110.14
2019-01-29T12:35:28.694Z,93107.70
2019-01-29T12:37:58.327Z,93111.27
2019-01-29T12:40:27.492Z,93100.02
2019-01-29T12:42:56.475Z,93096.45
2019-01-29T12:45:25.265Z,93091.30
2019-01-29T12:47:54.164Z,93088.45
2019-01-29T12:50:28.882Z,93084.30
2019-01-29T12:52:59.380Z,93084.96
2019-01-29T12:55:27.987Z,93082.81
2019-01-29T12:57:56.687Z,93072.23
2019-01-29T13:00:29.592Z,93077.84
2019-01-29T13:02:58.260Z,93076.03
2019-01-29T13:05:27.102Z,93081.55
2019-01-29T13:07:55.836Z,93079.07
2019-01-29T13:10:27.804Z,93075.13
2019-01-29T13:12:56.696Z,93072.83
2019-01-29T13:15:28.657Z,93071.88
2019-01-29T13:17:58.779Z,93073.26
2019-01-29T13:20:27.576Z,93070.86
2019-01-29T13:22:56.354Z,93065.05
2019-01-29T13:25:25.537Z,93067.36
2019-01-29T13:27:54.685Z,93066.40
2019-01-29T13:30:26.430Z,93056.61
2019-01-29T13:32:56.937Z,93066.03
2019-01-29T13:35:28.795Z,93066.49
2019-01-29T13:37:57.693Z,93062.84
2019-01-29T13:40:26.390Z,93062.27
2019-01-29T13:42:55.299Z,93067.23
2019-01-29T13:45:24.302Z,93063.93
2019-01-29T13:47:53.159Z,93069.81
2019-01-29T13:50:44.156Z,93071.20
2019-01-29T13:53:12.950Z,93066.63
2019-01-29T13:55:42.052Z,93068.80
2019-01-29T13:58:10.936Z,93067.34
2019-01-29T14:00:41.367Z,93065.75
2019-01-29T14:03:12.367Z,93061.64
2019-01-29T14:05:41.200Z,93059.05
2019-01-29T14:08:10.200Z,93054.95
2019-01-29T14:10:38.927Z,93058.50
2019-01-29T14:13:07.763Z,93049.83
2019-01-29T14:15:47.222Z,93055.53
2019-01-29T14:18:16.342Z,93050.20
2019-01-29T14:20:45.194Z,93052.95
2019-01-29T14:23:13.984Z,93052.09
2019-01-29T14:25:42.875Z,93048.44
2019-01-29T14:28:11.762Z,93048.92
2019-01-29T14:30:44.569Z,93050.37
2019-01-29T14:33:13.331Z,93041.84
2019-01-29T14:35:42.017Z,93040.59
2019-01-29T14:38:16.581Z,93037.52
2019-01-29T14:40:45.331Z,93041.28
2019-01-29T14:43:18.140Z,93042.43
2019-01-29T14:45:50.014Z,93038.56
2019-01-29T14:48:18.878Z,93035.53
2019-01-29T14:50:48.886Z,93033.84
2019-01-29T14:53:17.887Z,93019.59
2019-01-29T14:55:50.663Z,93028.35
2019-01-29T14:58:19.456Z,93034.84
2019-01-29T15:00:48.574Z,93031.97
2019-01-29T15:03:17.702Z,93041.42
2019-01-29T15:05:46.887Z,93040.05
2019-01-29T15:08:16.136Z,93040.45
2019-01-29T15:10:44.931Z,93044.99
2019-01-29T15:13:14.160Z,93042.39
2019-01-29T15:15:53.566Z,93037.02
2019-01-29T15:18:24.111Z,93036.89
2019-01-29T15:20:52.897Z,93047.03
2019-01-29T15:23:21.783Z,93048.25
2019-01-29T15:25:51.445Z,93044.44
2019-01-29T15:28:24.850Z,93051.13
2019-01-29T15:30:54.676Z,93047.95
2019-01-29T15:33:23.743Z,93049.74
2019-01-29T15:35:52.660Z,93044.88
2019-01-29T15:38:21.512Z,93043.29
2019-01-29T15:40:50.228Z,93042.31
2019-01-29T15:43:18.957Z,93041.53
2019-01-29T15:45:47.771Z,93044.31
2019-01-29T15:48:16.474Z,93046.81
2019-01-29T15:50:45.728Z,93038.60
2019-01-29T15:53:15.951Z,93029.98
2019-01-29T15:55:44.957Z,93026.25
2019-01-29T15:58:14.250Z,93031.09
2019-01-29T16:00:43.756Z,93020.36
2019-01-29T16:03:14.733Z,93023.70
2019-01-29T16:05:44.353Z,93028.09
2019-01-29T16:08:14.247Z,93020.05
2019-01-29T16:10:46.564Z,93019.34
2019-01-29T16:13:15.493Z,93018.42
2019-01-29T16:15:44.677Z,93009.40
2019-01-29T16:18:14.076Z,93014.34
2019-01-29T16:20:42.774Z,93013.38
2019-01-29T16:23:11.891Z,93014.85
2019-01-29T16:25:41.220Z,93014.37
2019-01-29T16:28:13.847Z,93012.94
2019-01-29T16:30:45.516Z,93006.04
2019-01-29T16:33:14.820Z,93007.62
2019-01-29T16:35:45.860Z,92999.56
2019-01-29T16:38:14.627Z,93000.59
2019-01-29T16:40:45.929Z,93006.31
2019-01-29T16:43:16.294Z,93008.62
2019-01-29T16:45:45.408Z,93007.10
2019-01-29T16:48:18.697Z,92999.19
2019-01-29T16:50:46.561Z,93001.14
2019-01-29T16:53:15.265Z,93007.68
2019-01-29T16:55:48.339Z,93004.33
2019-01-29T16:58:18.579Z,93009.36
2019-01-29T17:00:47.462Z,93003.98
2019-01-29T17:03:16.175Z,93004.97
2019-01-29T17:05:48.388Z,93001.33
2019-01-29T17:08:18.407Z,92998.93
2019-01-29T17:10:50.098Z,93004.64
2019-01-29T17:13:18.747Z,93005.80
2019-01-29T17:15:47.565Z,93000.12
2019-01-29T17:18:16.258Z,92999.35
2019-01-29T17:20:46.981Z,93006.70
2019-01-29T17:23:18.530Z,93002.73
2019-01-29T17:25:46.908Z,93002.34
2019-01-29T17:28:15.712Z,92999.23
2019-01-29T17:30:51.347Z,92976.31
2019-01-29T17:33:20.343Z,92995.84
2019-01-29T17:35:49.040Z,92992.44
2019-01-29T17:38:19.718Z,92991.58
2019-01-29T17:40:48.478Z,92995.02
2019-01-29T17:43:17.301Z,92997.40
2019-01-29T17:45:51.563Z,92995.17
2019-01-29T17:48:20.408Z,92991.34
2019-01-29T17:50:54.191Z,92985.09
2019-01-29T17:53:39.341Z,92987.97
2019-01-29T17:56:15.299Z,92987.52
2019-01-29T17:58:47.062Z,92988.87
2019-01-29T18:01:20.563Z,92987.35
2019-01-29T18:03:50.157Z,92988.22
2019-01-29T18:06:19.928Z,92983.98
2019-01-29T18:08:50.429Z,92980.27
2019-01-29T18:11:19.213Z,92978.17
2019-01-29T18:13:49.589Z,92975.95
2019-01-29T18:16:20.454Z,92976.76
2019-01-29T18:18:50.401Z,92970.62
2019-01-29T18:21:22.486Z,92966.61
2019-01-29T18:24:02.171Z,92967.13
2019-01-29T18:26:41.679Z,92967.16
2019-01-29T18:29:16.642Z,92963.84
2019-01-29T18:31:44.502Z,92970.17
2019-01-29T18:34:18.311Z,92969.11
2019-01-29T18:36:47.134Z,92962.47
2019-01-29T18:39:19.653Z,92968.16
2019-01-29T18:42:22.770Z,92961.19
2019-01-29T18:44:24.141Z,92966.33
2019-01-29T18:47:21.982Z,92965.11
2019-01-29T18:49:40.397Z,92961.45
2019-01-29T18:52:09.287Z,92958.77
2019-01-29T18:54:38.114Z,92958.57
2019-01-29T18:57:08.836Z,92960.34
2019-01-29T18:59:42.420Z,92965.14
2019-01-29T19:02:12.720Z,92960.86
2019-01-29T19:04:42.746Z,92963.88
2019-01-29T19:07:13.179Z,92958.17
2019-01-29T19:09:46.525Z,92960.26
2019-01-29T19:12:15.272Z,92952.03
2019-01-29T19:14:46.047Z,92953.77
2019-01-29T19:17:14.675Z,92949.64
2019-01-29T19:19:45.815Z,92943.93
2019-01-29T19:22:14.556Z,92939.49
2019-01-29T19:24:43.182Z,92936.64
2019-01-29T19:27:11.831Z,92931.23
2019-01-29T19:29:41.590Z,92936.33
2019-01-29T19:32:10.268Z,92939.02
2019-01-29T19:34:38.993Z,92937.30
2019-01-29T19:37:07.714Z,92934.74
2019-01-29T19:39:36.365Z,92931.73
2019-01-29T19:42:06.669Z,92933.78
2019-01-29T19:44:35.334Z,92929.04
2019-01-29T19:47:04.053Z,92926.03
2019-01-29T19:49:32.675Z,92920.80
2019-01-29T19:52:01.380Z,92917.79
2019-01-29T19:54:30.072Z,92922.57
2019-01-29T19:56:59.092Z,92916.72
2019-01-29T19:59:27.712Z,92919.55
2019-01-29T20:01:56.425Z,92909.57
2019-01-29T20:04:25.105Z,92912.91
2019-01-29T20:06:53.857Z,92916.06
2019-01-29T20:09:22.554Z,92920.81
2019-01-29T20:11:53.233Z,92910.06
2019-01-29T20:14:21.650Z,92910.50
2019-01-29T20:16:50.397Z,92912.27
2019-01-29T20:19:19.054Z,92904.69
2019-01-29T20:21:47.759Z,92907.22
2019-01-29T20:24:17.149Z,92902.16
2019-01-29T20:26:47.429Z,92903.71
2019-01-29T20:29:19.272Z,92898.67
2019-01-29T20:31:47.963Z,92907.52
2019-01-29T20:34:16.661Z,92904.66
2019-01-29T20:36:46.243Z,92902.77
2019-01-29T20:39:15.059Z,92898.64
2019-01-29T20:41:43.773Z,92896.12
2019-01-29T20:44:12.401Z,92896.42
2019-01-29T20:46:41.114Z,92894.82
2019-01-29T20:49:09.820Z,92894.35
2019-01-29T20:51:38.471Z,92889.13
2019-01-29T20:54:07.178Z,92884.81
2019-01-29T20:56:35.817Z,92891.08
2019-01-29T20:59:04.507Z,92895.03
2019-01-29T21:01:33.198Z,92884.44
2019-01-29T21:04:01.891Z,92886.33
2019-01-29T21:06:30.557Z,92882.06
2019-01-29T21:08:59.293Z,92878.14
2019-01-29T21:11:28.008Z,92877.80
2019-01-29T21:13:56.750Z,92876.53
2019-01-29T21:16:25.391Z,92871.14
2019-01-29T21:18:54.123Z,92875.98
2019-01-29T21:21:22.756Z,92869.32
2019-01-29T21:23:51.659Z,92859.76
2019-01-29T21:26:20.366Z,92862.02
2019-01-29T21:28:49.029Z,92862.36
2019-01-29T21:31:19.427Z,92857.18
2019-01-29T21:33:48.068Z,92852.48
2019-01-29T21:36:16.784Z,92853.48
2019-01-29T21:38:45.432Z,92852.30
2019-01-29T21:41:14.127Z,92842.27
2019-01-29T21:43:42.782Z,92843.06
2019-01-29T21:46:11.467Z,92845.89
2019-01-29T21:48:40.111Z,92841.28
2019-01-29T21:51:08.896Z,92839.86
2019-01-29T21:53:37.563Z,92838.63
2019-01-29T21:56:06.360Z,92835.52
2019-01-29T21:58:35.010Z,92836.46
2019-01-29T22:01:03.865Z,92821.65
2019-01-29T22:03:35.617Z,92821.53
2019-01-29T22:06:05.809Z,92828.56
2019-01-29T22:08:37.669Z,92817.97
2019-01-29T22:11:06.274Z,92816.23
2019-01-29T22:13:36.529Z,92809.50
2019-01-29T22:16:05.365Z,92809.78
2019-01-29T22:18:34.109Z,92808.77
2019-01-29T22:21:02.729Z,92807.94
2019-01-29T22:23:31.459Z,92801.45
2019-01-29T22:26:00.247Z,92800.09
2019-01-29T22:28:28.882Z,92801.71
2019-01-29T22:30:57.590Z,92791.73
2019-01-29T22:33:26.266Z,92796.77
2019-01-29T22:35:54.878Z,92797.75
2019-01-29T22:38:26.317Z,92786.07
2019-01-29T22:40:55.030Z,92786.80
2019-01-29T22:43:23.706Z,92788.27
2019-01-29T22:45:52.381Z,92788.16
2019-01-29T22:48:27.137Z,92782.14
2019-01-29T22:50:51.463Z,92775.98
2019-01-29T22:53:22.943Z,92767.66
2019-01-29T22:55:51.629Z,92770.08
2019-01-29T22:58:20.268Z,92772.81
2019-01-29T23:01:01.403Z,92767.30
2019-01-29T23:03:38.448Z,92761.42
2019-01-29T23:06:21.865Z,92755.84
2019-01-29T23:08:50.601Z,92749.32
2019-01-29T23:11:19.283Z,92745.94
2019-01-29T23:13:49.837Z,92740.46
2019-01-29T23:16:18.523Z,92735.81
2019-01-29T23:18:47.206Z,92727.53
2019-01-29T23:21:15.813Z,92732.28
2019-01-29T23:23:44.535Z,92727.35
2019-01-29T23:26:13.154Z,92719.60
2019-01-29T23:28:46.149Z,92717.01
2019-01-29T23:31:18.759Z,92717.95
2019-01-29T23:33:47.448Z,92712.07
2019-01-29T23:36:16.061Z,92712.24
2019-01-29T23:38:44.686Z,92696.77
2019-01-29T23:41:13.373Z,92689.64
2019-01-29T23:43:42.073Z,92684.27
2019-01-29T23:46:13.823Z,92679.09
2019-01-29T23:48:42.541Z,92666.53
2019-01-29T23:51:14.141Z,92658.72
2019-01-29T23:53:42.759Z,92660.66
2019-01-29T23:56:11.380Z,92661.41
2019-01-29T23:58:40.065Z,92657.59
